Airport View

Enter AWOS ICAO identifier for current METAR.

ex. KFNL

KMYL 300351Z AUTO 00000KT 10SM CLR 02/M02 A3018 RMK AO2 SLP238 T00171022

30 Oct 2020 04:50

Frequency: 119.925

Phone: 208-634-7198

Other Area AWOS: KJSY - KGIC - KSNT - KONO

TAF KMYL 292321Z 3000/3024 VRB06KT P6SM SKC FM301900 24010G17KT P6SM SKC